sensor_id;sensor_type;location;lat;lon;timestamp;P1;durP1;ratioP1;P2;durP2;ratioP2
80185;SDS011;69904;52.122;5.422;2023-07-28T00:01:26;13.65;;;6.32;;
80185;SDS011;69904;52.122;5.422;2023-07-28T00:06:19;14.20;;;7.20;;
80185;SDS011;69904;52.122;5.422;2023-07-28T00:08:45;12.35;;;6.70;;
80185;SDS011;69904;52.122;5.422;2023-07-28T00:11:13;13.23;;;6.55;;
80185;SDS011;69904;52.122;5.422;2023-07-28T00:13:41;16.25;;;7.40;;
80185;SDS011;69904;52.122;5.422;2023-07-28T00:16:09;13.93;;;7.55;;
80185;SDS011;69904;52.122;5.422;2023-07-28T00:18:36;14.05;;;7.25;;
80185;SDS011;69904;52.122;5.422;2023-07-28T00:21:04;14.55;;;6.80;;
80185;SDS011;69904;52.122;5.422;2023-07-28T00:23:31;11.80;;;6.30;;
80185;SDS011;69904;52.122;5.422;2023-07-28T00:25:57;15.95;;;6.68;;
80185;SDS011;69904;52.122;5.422;2023-07-28T00:28:24;9.88;;;6.03;;
80185;SDS011;69904;52.122;5.422;2023-07-28T00:30:50;13.88;;;6.82;;
80185;SDS011;69904;52.122;5.422;2023-07-28T00:33:17;11.48;;;6.00;;
80185;SDS011;69904;52.122;5.422;2023-07-28T00:35:43;12.68;;;6.43;;
80185;SDS011;69904;52.122;5.422;2023-07-28T00:38:10;11.52;;;5.75;;
80185;SDS011;69904;52.122;5.422;2023-07-28T00:40:36;11.48;;;6.55;;
80185;SDS011;69904;52.122;5.422;2023-07-28T00:43:03;9.90;;;5.03;;
80185;SDS011;69904;52.122;5.422;2023-07-28T00:45:29;9.18;;;6.28;;
80185;SDS011;69904;52.122;5.422;2023-07-28T00:47:58;13.38;;;5.50;;
80185;SDS011;69904;52.122;5.422;2023-07-28T00:50:26;9.73;;;5.30;;
80185;SDS011;69904;52.122;5.422;2023-07-28T00:52:54;12.45;;;4.65;;
80185;SDS011;69904;52.122;5.422;2023-07-28T00:55:22;8.73;;;5.15;;
80185;SDS011;69904;52.122;5.422;2023-07-28T00:57:49;7.68;;;4.93;;
80185;SDS011;69904;52.122;5.422;2023-07-28T01:00:16;9.65;;;4.90;;
80185;SDS011;69904;52.122;5.422;2023-07-28T01:02:43;15.32;;;6.18;;
80185;SDS011;69904;52.122;5.422;2023-07-28T01:05:10;11.93;;;4.93;;
80185;SDS011;69904;52.122;5.422;2023-07-28T01:07:40;13.80;;;5.57;;
80185;SDS011;69904;52.122;5.422;2023-07-28T01:10:16;15.80;;;4.63;;
80185;SDS011;69904;52.122;5.422;2023-07-28T01:12:45;13.38;;;4.65;;
80185;SDS011;69904;52.122;5.422;2023-07-28T01:15:11;13.38;;;5.78;;
80185;SDS011;69904;52.122;5.422;2023-07-28T01:17:38;12.23;;;5.05;;
80185;SDS011;69904;52.122;5.422;2023-07-28T01:20:04;10.38;;;4.57;;
80185;SDS011;69904;52.122;5.422;2023-07-28T01:26:13;14.95;;;5.30;;
80185;SDS011;69904;52.122;5.422;2023-07-28T01:28:19;11.02;;;4.70;;
80185;SDS011;69904;52.122;5.422;2023-07-28T01:30:46;14.23;;;5.63;;
80185;SDS011;69904;52.122;5.422;2023-07-28T01:33:13;11.23;;;4.25;;
80185;SDS011;69904;52.122;5.422;2023-07-28T01:35:40;13.00;;;5.63;;
80185;SDS011;69904;52.122;5.422;2023-07-28T01:38:06;12.90;;;4.32;;
80185;SDS011;69904;52.122;5.422;2023-07-28T01:40:33;16.80;;;5.35;;
80185;SDS011;69904;52.122;5.422;2023-07-28T01:42:59;12.77;;;5.43;;
80185;SDS011;69904;52.122;5.422;2023-07-28T01:45:25;12.35;;;5.13;;
80185;SDS011;69904;52.122;5.422;2023-07-28T01:47:52;10.82;;;4.45;;
80185;SDS011;69904;52.122;5.422;2023-07-28T01:52:45;17.48;;;5.85;;
80185;SDS011;69904;52.122;5.422;2023-07-28T01:55:11;14.27;;;5.60;;
80185;SDS011;69904;52.122;5.422;2023-07-28T01:57:38;19.27;;;6.53;;
80185;SDS011;69904;52.122;5.422;2023-07-28T02:00:06;13.35;;;5.85;;
80185;SDS011;69904;52.122;5.422;2023-07-28T02:02:33;17.38;;;6.25;;
80185;SDS011;69904;52.122;5.422;2023-07-28T02:04:59;12.10;;;5.18;;
80185;SDS011;69904;52.122;5.422;2023-07-28T02:09:52;13.38;;;5.82;;
80185;SDS011;69904;52.122;5.422;2023-07-28T02:12:19;16.77;;;5.90;;
80185;SDS011;69904;52.122;5.422;2023-07-28T02:14:45;16.10;;;5.97;;
80185;SDS011;69904;52.122;5.422;2023-07-28T02:17:12;11.02;;;5.03;;
80185;SDS011;69904;52.122;5.422;2023-07-28T02:19:38;13.85;;;5.75;;
80185;SDS011;69904;52.122;5.422;2023-07-28T02:22:05;16.00;;;5.60;;
80185;SDS011;69904;52.122;5.422;2023-07-28T02:24:33;15.35;;;6.38;;
80185;SDS011;69904;52.122;5.422;2023-07-28T02:26:59;16.88;;;6.47;;
80185;SDS011;69904;52.122;5.422;2023-07-28T02:29:25;15.98;;;6.32;;
80185;SDS011;69904;52.122;5.422;2023-07-28T02:31:52;15.65;;;6.60;;
80185;SDS011;69904;52.122;5.422;2023-07-28T02:34:18;16.90;;;6.70;;
80185;SDS011;69904;52.122;5.422;2023-07-28T02:36:45;19.20;;;7.07;;
80185;SDS011;69904;52.122;5.422;2023-07-28T02:39:11;16.15;;;7.05;;
80185;SDS011;69904;52.122;5.422;2023-07-28T02:41:37;16.70;;;7.38;;
80185;SDS011;69904;52.122;5.422;2023-07-28T02:44:04;15.45;;;6.68;;
80185;SDS011;69904;52.122;5.422;2023-07-28T02:46:30;21.10;;;7.32;;
80185;SDS011;69904;52.122;5.422;2023-07-28T02:48:57;20.90;;;8.18;;
80185;SDS011;69904;52.122;5.422;2023-07-28T02:51:23;21.15;;;7.97;;
80185;SDS011;69904;52.122;5.422;2023-07-28T02:53:50;17.55;;;7.30;;
80185;SDS011;69904;52.122;5.422;2023-07-28T02:56:16;18.80;;;7.25;;
80185;SDS011;69904;52.122;5.422;2023-07-28T02:58:43;16.02;;;7.18;;
80185;SDS011;69904;52.122;5.422;2023-07-28T03:01:09;15.02;;;7.15;;
80185;SDS011;69904;52.122;5.422;2023-07-28T03:03:36;22.05;;;8.02;;
80185;SDS011;69904;52.122;5.422;2023-07-28T03:06:02;20.90;;;7.10;;
80185;SDS011;69904;52.122;5.422;2023-07-28T03:08:28;25.80;;;8.55;;
80185;SDS011;69904;52.122;5.422;2023-07-28T03:10:58;18.88;;;7.97;;
80185;SDS011;69904;52.122;5.422;2023-07-28T03:13:25;17.67;;;8.20;;
80185;SDS011;69904;52.122;5.422;2023-07-28T03:15:51;17.52;;;8.15;;
80185;SDS011;69904;52.122;5.422;2023-07-28T03:18:17;20.30;;;7.53;;
80185;SDS011;69904;52.122;5.422;2023-07-28T03:20:45;17.77;;;7.45;;
80185;SDS011;69904;52.122;5.422;2023-07-28T03:23:12;22.45;;;8.27;;
80185;SDS011;69904;52.122;5.422;2023-07-28T03:25:38;20.40;;;8.05;;
80185;SDS011;69904;52.122;5.422;2023-07-28T03:28:05;24.48;;;7.78;;
80185;SDS011;69904;52.122;5.422;2023-07-28T03:30:31;23.60;;;8.40;;
80185;SDS011;69904;52.122;5.422;2023-07-28T03:32:58;17.98;;;7.78;;
80185;SDS011;69904;52.122;5.422;2023-07-28T03:37:51;20.02;;;7.70;;
80185;SDS011;69904;52.122;5.422;2023-07-28T03:40:17;20.98;;;8.00;;
80185;SDS011;69904;52.122;5.422;2023-07-28T03:42:43;18.95;;;8.55;;
80185;SDS011;69904;52.122;5.422;2023-07-28T03:45:10;20.30;;;8.07;;
80185;SDS011;69904;52.122;5.422;2023-07-28T03:47:36;25.98;;;9.18;;
80185;SDS011;69904;52.122;5.422;2023-07-28T03:50:03;23.88;;;8.23;;
80185;SDS011;69904;52.122;5.422;2023-07-28T03:52:30;28.15;;;9.05;;
80185;SDS011;69904;52.122;5.422;2023-07-28T03:54:56;22.55;;;8.73;;
80185;SDS011;69904;52.122;5.422;2023-07-28T03:57:23;23.50;;;8.68;;
80185;SDS011;69904;52.122;5.422;2023-07-28T03:59:49;25.33;;;8.98;;
80185;SDS011;69904;52.122;5.422;2023-07-28T04:02:16;25.65;;;8.73;;
80185;SDS011;69904;52.122;5.422;2023-07-28T04:04:42;25.02;;;9.30;;
80185;SDS011;69904;52.122;5.422;2023-07-28T04:07:08;22.30;;;8.20;;
80185;SDS011;69904;52.122;5.422;2023-07-28T04:09:35;26.83;;;8.82;;
80185;SDS011;69904;52.122;5.422;2023-07-28T04:12:01;23.90;;;8.88;;
80185;SDS011;69904;52.122;5.422;2023-07-28T04:14:28;26.60;;;9.23;;
80185;SDS011;69904;52.122;5.422;2023-07-28T04:16:54;26.75;;;9.50;;
80185;SDS011;69904;52.122;5.422;2023-07-28T04:19:21;28.90;;;9.80;;
80185;SDS011;69904;52.122;5.422;2023-07-28T04:21:47;22.63;;;9.20;;
80185;SDS011;69904;52.122;5.422;2023-07-28T04:24:14;28.70;;;9.40;;
80185;SDS011;69904;52.122;5.422;2023-07-28T04:26:40;30.08;;;9.77;;
80185;SDS011;69904;52.122;5.422;2023-07-28T04:29:08;26.00;;;9.60;;
80185;SDS011;69904;52.122;5.422;2023-07-28T04:31:35;25.25;;;9.32;;
80185;SDS011;69904;52.122;5.422;2023-07-28T04:34:02;22.83;;;7.82;;
80185;SDS011;69904;52.122;5.422;2023-07-28T04:36:29;25.33;;;8.57;;
80185;SDS011;69904;52.122;5.422;2023-07-28T04:38:56;29.10;;;9.77;;
80185;SDS011;69904;52.122;5.422;2023-07-28T04:41:22;23.13;;;9.32;;
80185;SDS011;69904;52.122;5.422;2023-07-28T04:43:48;29.98;;;8.63;;
80185;SDS011;69904;52.122;5.422;2023-07-28T04:46:15;24.52;;;8.75;;
80185;SDS011;69904;52.122;5.422;2023-07-28T04:48:41;19.52;;;8.50;;
80185;SDS011;69904;52.122;5.422;2023-07-28T04:51:08;24.67;;;8.80;;
80185;SDS011;69904;52.122;5.422;2023-07-28T04:53:34;25.17;;;8.45;;
80185;SDS011;69904;52.122;5.422;2023-07-28T04:56:01;36.40;;;9.32;;
80185;SDS011;69904;52.122;5.422;2023-07-28T04:58:29;21.33;;;9.38;;
80185;SDS011;69904;52.122;5.422;2023-07-28T05:00:55;23.48;;;9.55;;
80185;SDS011;69904;52.122;5.422;2023-07-28T05:03:22;29.38;;;9.10;;
80185;SDS011;69904;52.122;5.422;2023-07-28T05:05:49;27.05;;;9.68;;
80185;SDS011;69904;52.122;5.422;2023-07-28T05:08:16;24.33;;;9.25;;
80185;SDS011;69904;52.122;5.422;2023-07-28T05:10:43;34.28;;;9.82;;
80185;SDS011;69904;52.122;5.422;2023-07-28T05:13:10;26.92;;;9.75;;
80185;SDS011;69904;52.122;5.422;2023-07-28T05:15:36;25.48;;;9.68;;
80185;SDS011;69904;52.122;5.422;2023-07-28T05:18:03;26.63;;;9.27;;
80185;SDS011;69904;52.122;5.422;2023-07-28T05:20:29;29.40;;;9.00;;
80185;SDS011;69904;52.122;5.422;2023-07-28T05:22:56;25.27;;;9.50;;
80185;SDS011;69904;52.122;5.422;2023-07-28T05:25:22;21.08;;;9.13;;
80185;SDS011;69904;52.122;5.422;2023-07-28T05:27:49;23.27;;;8.98;;
80185;SDS011;69904;52.122;5.422;2023-07-28T05:30:15;28.05;;;8.75;;
80185;SDS011;69904;52.122;5.422;2023-07-28T05:32:42;22.45;;;8.48;;
80185;SDS011;69904;52.122;5.422;2023-07-28T05:35:08;22.50;;;8.55;;
80185;SDS011;69904;52.122;5.422;2023-07-28T05:40:01;20.00;;;8.55;;
80185;SDS011;69904;52.122;5.422;2023-07-28T05:42:28;25.65;;;8.18;;
80185;SDS011;69904;52.122;5.422;2023-07-28T05:44:55;19.25;;;8.35;;
80185;SDS011;69904;52.122;5.422;2023-07-28T05:47:21;22.08;;;8.15;;
80185;SDS011;69904;52.122;5.422;2023-07-28T05:49:48;21.15;;;8.10;;
80185;SDS011;69904;52.122;5.422;2023-07-28T05:52:14;18.10;;;7.35;;
80185;SDS011;69904;52.122;5.422;2023-07-28T05:54:41;27.08;;;8.85;;
80185;SDS011;69904;52.122;5.422;2023-07-28T05:57:07;20.83;;;7.70;;
80185;SDS011;69904;52.122;5.422;2023-07-28T05:59:34;17.90;;;7.60;;
80185;SDS011;69904;52.122;5.422;2023-07-28T06:02:00;21.38;;;7.78;;
80185;SDS011;69904;52.122;5.422;2023-07-28T06:04:26;20.45;;;8.10;;
80185;SDS011;69904;52.122;5.422;2023-07-28T06:06:53;15.40;;;7.57;;
80185;SDS011;69904;52.122;5.422;2023-07-28T06:09:19;20.75;;;7.28;;
80185;SDS011;69904;52.122;5.422;2023-07-28T06:11:46;18.98;;;7.63;;
80185;SDS011;69904;52.122;5.422;2023-07-28T06:14:12;18.65;;;7.35;;
80185;SDS011;69904;52.122;5.422;2023-07-28T06:16:39;15.70;;;7.13;;
80185;SDS011;69904;52.122;5.422;2023-07-28T06:19:05;20.38;;;7.82;;
80185;SDS011;69904;52.122;5.422;2023-07-28T06:21:32;16.23;;;7.35;;
80185;SDS011;69904;52.122;5.422;2023-07-28T06:23:59;17.02;;;8.05;;
80185;SDS011;69904;52.122;5.422;2023-07-28T06:26:26;19.20;;;8.52;;
80185;SDS011;69904;52.122;5.422;2023-07-28T06:28:52;22.73;;;8.10;;
80185;SDS011;69904;52.122;5.422;2023-07-28T06:31:19;20.83;;;7.97;;
80185;SDS011;69904;52.122;5.422;2023-07-28T06:33:46;20.42;;;8.52;;
80185;SDS011;69904;52.122;5.422;2023-07-28T06:36:13;17.65;;;7.93;;
80185;SDS011;69904;52.122;5.422;2023-07-28T06:38:40;17.20;;;8.07;;
80185;SDS011;69904;52.122;5.422;2023-07-28T06:41:06;20.90;;;7.70;;
80185;SDS011;69904;52.122;5.422;2023-07-28T06:43:32;17.55;;;8.05;;
80185;SDS011;69904;52.122;5.422;2023-07-28T06:45:59;17.42;;;6.97;;
80185;SDS011;69904;52.122;5.422;2023-07-28T06:48:26;17.20;;;8.43;;
80185;SDS011;69904;52.122;5.422;2023-07-28T06:50:52;19.80;;;8.13;;
80185;SDS011;69904;52.122;5.422;2023-07-28T06:53:19;20.95;;;9.50;;
80185;SDS011;69904;52.122;5.422;2023-07-28T06:55:46;17.00;;;8.25;;
80185;SDS011;69904;52.122;5.422;2023-07-28T06:58:13;17.35;;;7.85;;
80185;SDS011;69904;52.122;5.422;2023-07-28T07:00:39;20.25;;;7.97;;
80185;SDS011;69904;52.122;5.422;2023-07-28T07:03:06;18.98;;;8.68;;
80185;SDS011;69904;52.122;5.422;2023-07-28T07:05:32;20.00;;;8.88;;
80185;SDS011;69904;52.122;5.422;2023-07-28T07:07:59;17.27;;;8.38;;
80185;SDS011;69904;52.122;5.422;2023-07-28T07:10:27;21.55;;;8.38;;
80185;SDS011;69904;52.122;5.422;2023-07-28T07:15:19;17.73;;;8.07;;
80185;SDS011;69904;52.122;5.422;2023-07-28T07:17:46;22.35;;;10.13;;
80185;SDS011;69904;52.122;5.422;2023-07-28T07:20:12;21.13;;;9.35;;
80185;SDS011;69904;52.122;5.422;2023-07-28T07:25:05;17.73;;;6.88;;
80185;SDS011;69904;52.122;5.422;2023-07-28T07:27:33;17.88;;;7.72;;
80185;SDS011;69904;52.122;5.422;2023-07-28T07:29:59;19.73;;;7.68;;
80185;SDS011;69904;52.122;5.422;2023-07-28T07:32:26;16.75;;;8.75;;
80185;SDS011;69904;52.122;5.422;2023-07-28T07:34:52;23.77;;;9.20;;
80185;SDS011;69904;52.122;5.422;2023-07-28T07:39:45;15.52;;;7.50;;
80185;SDS011;69904;52.122;5.422;2023-07-28T07:42:12;17.23;;;6.95;;
80185;SDS011;69904;52.122;5.422;2023-07-28T07:44:40;16.20;;;7.00;;
80185;SDS011;69904;52.122;5.422;2023-07-28T07:47:13;15.18;;;6.72;;
80185;SDS011;69904;52.122;5.422;2023-07-28T07:49:41;15.10;;;6.63;;
80185;SDS011;69904;52.122;5.422;2023-07-28T07:52:09;15.63;;;6.82;;
80185;SDS011;69904;52.122;5.422;2023-07-28T07:54:36;12.18;;;6.07;;
80185;SDS011;69904;52.122;5.422;2023-07-28T07:57:03;15.00;;;6.15;;
80185;SDS011;69904;52.122;5.422;2023-07-28T07:59:30;17.80;;;6.57;;
80185;SDS011;69904;52.122;5.422;2023-07-28T08:02:01;13.95;;;6.07;;
80185;SDS011;69904;52.122;5.422;2023-07-28T08:04:29;12.60;;;6.40;;
80185;SDS011;69904;52.122;5.422;2023-07-28T08:06:55;11.32;;;5.90;;
80185;SDS011;69904;52.122;5.422;2023-07-28T08:09:22;14.10;;;5.97;;
80185;SDS011;69904;52.122;5.422;2023-07-28T08:11:48;12.27;;;5.47;;
80185;SDS011;69904;52.122;5.422;2023-07-28T08:14:15;15.88;;;6.22;;
80185;SDS011;69904;52.122;5.422;2023-07-28T08:19:08;13.93;;;5.70;;
80185;SDS011;69904;52.122;5.422;2023-07-28T08:21:35;11.18;;;5.95;;
80185;SDS011;69904;52.122;5.422;2023-07-28T08:24:03;11.77;;;4.72;;
80185;SDS011;69904;52.122;5.422;2023-07-28T08:26:30;14.75;;;4.25;;
80185;SDS011;69904;52.122;5.422;2023-07-28T08:28:57;10.35;;;4.82;;
80185;SDS011;69904;52.122;5.422;2023-07-28T08:31:23;7.70;;;3.50;;
80185;SDS011;69904;52.122;5.422;2023-07-28T08:33:50;11.23;;;4.45;;
80185;SDS011;69904;52.122;5.422;2023-07-28T08:36:16;5.00;;;3.38;;
80185;SDS011;69904;52.122;5.422;2023-07-28T08:38:43;9.48;;;3.67;;
80185;SDS011;69904;52.122;5.422;2023-07-28T08:41:12;6.70;;;3.15;;
80185;SDS011;69904;52.122;5.422;2023-07-28T08:43:39;10.73;;;3.40;;
80185;SDS011;69904;52.122;5.422;2023-07-28T08:46:07;9.05;;;3.30;;
80185;SDS011;69904;52.122;5.422;2023-07-28T08:48:35;8.05;;;2.67;;
80185;SDS011;69904;52.122;5.422;2023-07-28T08:53:30;6.38;;;3.10;;
80185;SDS011;69904;52.122;5.422;2023-07-28T08:58:26;5.47;;;2.72;;
80185;SDS011;69904;52.122;5.422;2023-07-28T09:00:53;7.78;;;2.78;;
80185;SDS011;69904;52.122;5.422;2023-07-28T09:03:20;7.03;;;2.80;;
80185;SDS011;69904;52.122;5.422;2023-07-28T09:05:48;10.10;;;2.70;;
80185;SDS011;69904;52.122;5.422;2023-07-28T09:08:15;4.97;;;2.53;;
80185;SDS011;69904;52.122;5.422;2023-07-28T09:10:42;8.25;;;2.80;;
80185;SDS011;69904;52.122;5.422;2023-07-28T09:13:17;5.97;;;1.92;;
80185;SDS011;69904;52.122;5.422;2023-07-28T09:15:44;7.32;;;2.35;;
80185;SDS011;69904;52.122;5.422;2023-07-28T09:18:12;9.43;;;2.60;;
80185;SDS011;69904;52.122;5.422;2023-07-28T09:20:40;8.43;;;2.63;;
80185;SDS011;69904;52.122;5.422;2023-07-28T09:23:08;4.82;;;2.28;;
80185;SDS011;69904;52.122;5.422;2023-07-28T09:25:37;6.75;;;2.42;;
80185;SDS011;69904;52.122;5.422;2023-07-28T09:28:04;3.58;;;2.03;;
80185;SDS011;69904;52.122;5.422;2023-07-28T09:30:53;4.82;;;2.00;;
80185;SDS011;69904;52.122;5.422;2023-07-28T09:33:29;3.13;;;1.90;;
80185;SDS011;69904;52.122;5.422;2023-07-28T09:36:07;7.78;;;3.42;;
80185;SDS011;69904;52.122;5.422;2023-07-28T09:38:36;3.90;;;2.50;;
80185;SDS011;69904;52.122;5.422;2023-07-28T09:41:04;6.20;;;2.33;;
80185;SDS011;69904;52.122;5.422;2023-07-28T09:43:36;5.53;;;2.15;;
80185;SDS011;69904;52.122;5.422;2023-07-28T09:46:07;6.72;;;2.30;;
80185;SDS011;69904;52.122;5.422;2023-07-28T09:48:37;6.18;;;2.20;;
80185;SDS011;69904;52.122;5.422;2023-07-28T09:51:19;3.70;;;2.00;;
80185;SDS011;69904;52.122;5.422;2023-07-28T09:53:53;4.35;;;1.92;;
80185;SDS011;69904;52.122;5.422;2023-07-28T09:56:27;4.93;;;2.05;;
80185;SDS011;69904;52.122;5.422;2023-07-28T09:58:55;7.75;;;2.13;;
80185;SDS011;69904;52.122;5.422;2023-07-28T10:01:23;6.60;;;2.60;;
80185;SDS011;69904;52.122;5.422;2023-07-28T10:03:51;5.82;;;2.50;;
80185;SDS011;69904;52.122;5.422;2023-07-28T10:06:18;5.35;;;2.22;;
80185;SDS011;69904;52.122;5.422;2023-07-28T10:08:46;5.70;;;2.72;;
80185;SDS011;69904;52.122;5.422;2023-07-28T10:13:40;4.50;;;2.25;;
80185;SDS011;69904;52.122;5.422;2023-07-28T10:16:12;3.20;;;2.53;;
80185;SDS011;69904;52.122;5.422;2023-07-28T10:18:41;6.00;;;2.22;;
80185;SDS011;69904;52.122;5.422;2023-07-28T10:23:41;4.78;;;1.90;;
80185;SDS011;69904;52.122;5.422;2023-07-28T10:28:36;3.85;;;2.40;;
80185;SDS011;69904;52.122;5.422;2023-07-28T10:31:10;4.68;;;2.40;;
80185;SDS011;69904;52.122;5.422;2023-07-28T10:33:38;5.35;;;2.28;;
80185;SDS011;69904;52.122;5.422;2023-07-28T10:36:11;7.10;;;2.50;;
80185;SDS011;69904;52.122;5.422;2023-07-28T10:38:40;12.90;;;2.88;;
80185;SDS011;69904;52.122;5.422;2023-07-28T10:41:14;4.78;;;3.00;;
80185;SDS011;69904;52.122;5.422;2023-07-28T10:43:42;6.80;;;2.90;;
80185;SDS011;69904;52.122;5.422;2023-07-28T10:46:11;4.57;;;2.90;;
80185;SDS011;69904;52.122;5.422;2023-07-28T10:48:41;5.78;;;2.90;;
80185;SDS011;69904;52.122;5.422;2023-07-28T10:51:10;5.15;;;2.88;;
80185;SDS011;69904;52.122;5.422;2023-07-28T10:53:38;5.57;;;2.67;;
80185;SDS011;69904;52.122;5.422;2023-07-28T10:56:04;6.88;;;3.25;;
80185;SDS011;69904;52.122;5.422;2023-07-28T10:58:34;6.85;;;3.08;;
80185;SDS011;69904;52.122;5.422;2023-07-28T11:01:03;6.47;;;3.15;;
80185;SDS011;69904;52.122;5.422;2023-07-28T11:03:30;5.80;;;2.40;;
80185;SDS011;69904;52.122;5.422;2023-07-28T11:05:57;10.05;;;3.50;;
80185;SDS011;69904;52.122;5.422;2023-07-28T11:08:23;7.85;;;2.80;;
80185;SDS011;69904;52.122;5.422;2023-07-28T11:10:50;8.20;;;3.50;;
80185;SDS011;69904;52.122;5.422;2023-07-28T11:13:17;7.32;;;3.78;;
80185;SDS011;69904;52.122;5.422;2023-07-28T11:16:03;5.97;;;3.60;;
80185;SDS011;69904;52.122;5.422;2023-07-28T11:18:31;10.07;;;4.57;;
80185;SDS011;69904;52.122;5.422;2023-07-28T11:20:57;8.13;;;4.28;;
80185;SDS011;69904;52.122;5.422;2023-07-28T11:23:24;10.20;;;4.78;;
80185;SDS011;69904;52.122;5.422;2023-07-28T11:28:16;11.90;;;3.70;;
80185;SDS011;69904;52.122;5.422;2023-07-28T11:30:46;10.98;;;4.18;;
80185;SDS011;69904;52.122;5.422;2023-07-28T11:33:14;6.82;;;3.33;;
80185;SDS011;69904;52.122;5.422;2023-07-28T11:35:43;10.00;;;4.05;;
80185;SDS011;69904;52.122;5.422;2023-07-28T11:38:10;7.45;;;4.15;;
80185;SDS011;69904;52.122;5.422;2023-07-28T11:40:37;9.45;;;4.95;;
80185;SDS011;69904;52.122;5.422;2023-07-28T11:43:04;8.15;;;4.50;;
80185;SDS011;69904;52.122;5.422;2023-07-28T11:45:31;8.88;;;4.57;;
80185;SDS011;69904;52.122;5.422;2023-07-28T11:48:04;8.77;;;4.85;;
80185;SDS011;69904;52.122;5.422;2023-07-28T11:50:38;9.35;;;4.88;;
80185;SDS011;69904;52.122;5.422;2023-07-28T11:53:06;8.07;;;4.13;;
80185;SDS011;69904;52.122;5.422;2023-07-28T11:55:37;7.03;;;4.30;;
80185;SDS011;69904;52.122;5.422;2023-07-28T11:58:05;7.88;;;4.75;;
80185;SDS011;69904;52.122;5.422;2023-07-28T12:00:33;7.63;;;3.88;;
80185;SDS011;69904;52.122;5.422;2023-07-28T12:03:10;6.65;;;3.85;;
80185;SDS011;69904;52.122;5.422;2023-07-28T12:05:39;6.97;;;3.58;;
80185;SDS011;69904;52.122;5.422;2023-07-28T12:08:09;7.95;;;3.70;;
80185;SDS011;69904;52.122;5.422;2023-07-28T12:10:37;6.65;;;3.38;;
80185;SDS011;69904;52.122;5.422;2023-07-28T12:13:49;6.35;;;3.13;;
80185;SDS011;69904;52.122;5.422;2023-07-28T12:16:39;8.00;;;3.28;;
80185;SDS011;69904;52.122;5.422;2023-07-28T12:19:12;7.22;;;3.13;;
80185;SDS011;69904;52.122;5.422;2023-07-28T12:21:40;5.45;;;3.13;;
80185;SDS011;69904;52.122;5.422;2023-07-28T12:24:06;6.43;;;3.25;;
80185;SDS011;69904;52.122;5.422;2023-07-28T12:26:33;8.35;;;3.33;;
80185;SDS011;69904;52.122;5.422;2023-07-28T12:29:04;5.20;;;2.88;;
80185;SDS011;69904;52.122;5.422;2023-07-28T12:31:34;4.65;;;2.50;;
80185;SDS011;69904;52.122;5.422;2023-07-28T12:34:11;4.25;;;2.10;;
80185;SDS011;69904;52.122;5.422;2023-07-28T12:36:50;4.18;;;2.25;;
80185;SDS011;69904;52.122;5.422;2023-07-28T12:39:19;3.70;;;1.85;;
80185;SDS011;69904;52.122;5.422;2023-07-28T12:41:48;3.42;;;2.58;;
80185;SDS011;69904;52.122;5.422;2023-07-28T12:44:36;4.13;;;2.33;;
80185;SDS011;69904;52.122;5.422;2023-07-28T12:47:06;4.72;;;2.60;;
80185;SDS011;69904;52.122;5.422;2023-07-28T12:49:33;4.93;;;2.60;;
80185;SDS011;69904;52.122;5.422;2023-07-28T12:52:01;3.70;;;1.90;;
80185;SDS011;69904;52.122;5.422;2023-07-28T12:54:31;4.07;;;1.83;;
80185;SDS011;69904;52.122;5.422;2023-07-28T12:57:10;6.38;;;2.10;;
80185;SDS011;69904;52.122;5.422;2023-07-28T12:59:38;4.60;;;2.33;;
80185;SDS011;69904;52.122;5.422;2023-07-28T13:02:08;3.90;;;2.30;;
80185;SDS011;69904;52.122;5.422;2023-07-28T13:04:35;4.85;;;1.92;;
80185;SDS011;69904;52.122;5.422;2023-07-28T13:07:01;4.45;;;2.40;;
80185;SDS011;69904;52.122;5.422;2023-07-28T13:09:30;6.15;;;2.47;;
80185;SDS011;69904;52.122;5.422;2023-07-28T13:12:00;5.50;;;2.53;;
80185;SDS011;69904;52.122;5.422;2023-07-28T13:14:29;4.07;;;2.30;;
80185;SDS011;69904;52.122;5.422;2023-07-28T13:16:55;4.15;;;1.85;;
80185;SDS011;69904;52.122;5.422;2023-07-28T13:19:22;4.88;;;2.83;;
80185;SDS011;69904;52.122;5.422;2023-07-28T13:21:48;3.85;;;2.42;;
80185;SDS011;69904;52.122;5.422;2023-07-28T13:24:15;3.30;;;1.98;;
80185;SDS011;69904;52.122;5.422;2023-07-28T13:26:41;4.78;;;3.00;;
80185;SDS011;69904;52.122;5.422;2023-07-28T13:29:07;5.90;;;2.97;;
80185;SDS011;69904;52.122;5.422;2023-07-28T13:31:34;5.82;;;3.03;;
80185;SDS011;69904;52.122;5.422;2023-07-28T13:34:01;5.57;;;2.90;;
80185;SDS011;69904;52.122;5.422;2023-07-28T13:36:28;5.90;;;3.28;;
80185;SDS011;69904;52.122;5.422;2023-07-28T13:38:55;4.95;;;2.83;;
80185;SDS011;69904;52.122;5.422;2023-07-28T13:41:24;3.85;;;2.03;;
80185;SDS011;69904;52.122;5.422;2023-07-28T13:43:50;5.60;;;2.58;;
80185;SDS011;69904;52.122;5.422;2023-07-28T13:46:17;3.83;;;2.40;;
80185;SDS011;69904;52.122;5.422;2023-07-28T13:48:44;6.30;;;2.85;;
80185;SDS011;69904;52.122;5.422;2023-07-28T13:51:19;4.00;;;2.80;;
80185;SDS011;69904;52.122;5.422;2023-07-28T13:53:51;4.88;;;3.20;;
80185;SDS011;69904;52.122;5.422;2023-07-28T13:56:21;4.82;;;2.78;;
80185;SDS011;69904;52.122;5.422;2023-07-28T13:58:47;4.47;;;2.20;;
80185;SDS011;69904;52.122;5.422;2023-07-28T14:01:16;5.45;;;2.72;;
80185;SDS011;69904;52.122;5.422;2023-07-28T14:03:43;4.47;;;2.65;;
80185;SDS011;69904;52.122;5.422;2023-07-28T14:06:10;5.00;;;2.63;;
80185;SDS011;69904;52.122;5.422;2023-07-28T14:08:36;6.07;;;2.70;;
80185;SDS011;69904;52.122;5.422;2023-07-28T14:11:03;5.90;;;3.10;;
80185;SDS011;69904;52.122;5.422;2023-07-28T14:13:30;4.35;;;2.75;;
80185;SDS011;69904;52.122;5.422;2023-07-28T14:15:58;4.25;;;2.35;;
80185;SDS011;69904;52.122;5.422;2023-07-28T14:18:24;4.95;;;2.17;;
80185;SDS011;69904;52.122;5.422;2023-07-28T14:20:50;5.30;;;2.65;;
80185;SDS011;69904;52.122;5.422;2023-07-28T14:23:24;6.20;;;2.65;;
80185;SDS011;69904;52.122;5.422;2023-07-28T14:25:51;4.43;;;2.28;;
80185;SDS011;69904;52.122;5.422;2023-07-28T14:28:19;4.40;;;2.50;;
80185;SDS011;69904;52.122;5.422;2023-07-28T14:30:46;6.05;;;2.55;;
80185;SDS011;69904;52.122;5.422;2023-07-28T14:33:13;5.13;;;2.70;;
80185;SDS011;69904;52.122;5.422;2023-07-28T14:35:41;4.05;;;2.63;;
80185;SDS011;69904;52.122;5.422;2023-07-28T14:38:09;6.10;;;2.65;;
80185;SDS011;69904;52.122;5.422;2023-07-28T14:40:36;4.85;;;2.30;;
80185;SDS011;69904;52.122;5.422;2023-07-28T14:43:03;5.10;;;2.20;;
80185;SDS011;69904;52.122;5.422;2023-07-28T14:45:30;5.70;;;2.83;;
80185;SDS011;69904;52.122;5.422;2023-07-28T14:47:56;5.28;;;3.03;;
80185;SDS011;69904;52.122;5.422;2023-07-28T14:50:23;4.40;;;2.88;;
80185;SDS011;69904;52.122;5.422;2023-07-28T14:52:50;5.60;;;2.90;;
80185;SDS011;69904;52.122;5.422;2023-07-28T14:55:16;4.97;;;2.65;;
80185;SDS011;69904;52.122;5.422;2023-07-28T14:57:43;4.47;;;2.75;;
80185;SDS011;69904;52.122;5.422;2023-07-28T15:00:09;6.60;;;3.20;;
80185;SDS011;69904;52.122;5.422;2023-07-28T15:02:36;4.30;;;2.58;;
80185;SDS011;69904;52.122;5.422;2023-07-28T15:05:03;7.68;;;3.75;;
80185;SDS011;69904;52.122;5.422;2023-07-28T15:07:30;8.73;;;4.00;;
80185;SDS011;69904;52.122;5.422;2023-07-28T15:09:56;9.68;;;5.47;;
80185;SDS011;69904;52.122;5.422;2023-07-28T15:12:23;10.55;;;5.10;;
80185;SDS011;69904;52.122;5.422;2023-07-28T15:14:49;8.02;;;5.40;;
80185;SDS011;69904;52.122;5.422;2023-07-28T15:17:16;9.35;;;5.50;;
80185;SDS011;69904;52.122;5.422;2023-07-28T15:19:42;10.98;;;5.70;;
80185;SDS011;69904;52.122;5.422;2023-07-28T15:22:09;12.23;;;5.97;;
80185;SDS011;69904;52.122;5.422;2023-07-28T15:24:35;12.98;;;5.90;;